createdAt,value
2022-12-31T00:01:52.690Z,102528.81
2022-12-31T00:04:27.279Z,102533.69
2022-12-31T00:06:54.345Z,102501.50
2022-12-31T00:09:22.044Z,102525.19
2022-12-31T00:11:49.121Z,102533.69
2022-12-31T00:14:16.190Z,102517.91
2022-12-31T00:16:43.495Z,102526.31
2022-12-31T00:19:12.245Z,102528.50
2022-12-31T00:21:39.947Z,102510.13
2022-12-31T00:24:07.629Z,102496.34
2022-12-31T00:26:35.847Z,102511.53
2022-12-31T00:29:04.765Z,102490.13
2022-12-31T00:31:37.230Z,102501.97
2022-12-31T00:34:05.561Z,102487.94
2022-12-31T00:36:37.910Z,102511.91
2022-12-31T00:39:07.210Z,102509.44
2022-12-31T00:41:35.068Z,102523.44
2022-12-31T00:44:02.801Z,102515.84
2022-12-31T00:46:30.015Z,102523.56
2022-12-31T00:48:58.156Z,102525.25
2022-12-31T00:51:27.553Z,102510.53
2022-12-31T00:53:56.089Z,102532.22
2022-12-31T00:56:26.133Z,102537.03
2022-12-31T00:58:53.154Z,102551.56
2022-12-31T01:01:24.171Z,102552.31
2022-12-31T01:03:55.026Z,102549.81
2022-12-31T01:06:22.664Z,102557.53
2022-12-31T01:08:50.695Z,102557.44
2022-12-31T01:11:24.059Z,102553.88
2022-12-31T01:13:56.966Z,102566.19
2022-12-31T01:16:47.905Z,102570.50
2022-12-31T01:19:26.482Z,102582.16
2022-12-31T01:21:54.077Z,102585.06
2022-12-31T01:24:21.159Z,102598.94
2022-12-31T01:26:49.637Z,102599.75
2022-12-31T01:29:17.061Z,102594.34
2022-12-31T01:31:44.128Z,102596.91
2022-12-31T01:34:11.221Z,102587.31
2022-12-31T01:36:38.815Z,102590.22
2022-12-31T01:39:09.735Z,102590.41
2022-12-31T01:41:45.004Z,102591.41
2022-12-31T01:44:14.067Z,102600.97
2022-12-31T01:46:50.949Z,102600.41
2022-12-31T01:49:23.754Z,102603.09
2022-12-31T01:52:02.458Z,102601.41
2022-12-31T01:54:33.772Z,102595.25
2022-12-31T01:57:01.581Z,102604.03
2022-12-31T01:59:29.891Z,102608.38
2022-12-31T02:01:57.134Z,102601.97
2022-12-31T02:04:25.882Z,102600.88
2022-12-31T02:07:02.177Z,102608.78
2022-12-31T02:09:30.457Z,102601.09
2022-12-31T02:11:57.365Z,102601.00
2022-12-31T02:14:32.909Z,102602.69
2022-12-31T02:17:25.379Z,102602.56
2022-12-31T02:20:13.691Z,102605.28
2022-12-31T02:22:43.232Z,102599.34
2022-12-31T02:25:29.343Z,102595.88
2022-12-31T02:28:21.251Z,102593.78
2022-12-31T02:30:59.833Z,102595.34
2022-12-31T02:34:05.025Z,102595.94
2022-12-31T02:36:39.018Z,102589.13
2022-12-31T02:39:07.565Z,102597.50
2022-12-31T02:41:53.872Z,102598.53
2022-12-31T02:44:24.458Z,102593.25
2022-12-31T02:47:25.918Z,102596.78
2022-12-31T02:50:05.341Z,102595.00
2022-12-31T02:53:03.395Z,102591.69
2022-12-31T02:55:47.670Z,102600.25
2022-12-31T02:59:07.610Z,102592.50
2022-12-31T03:01:58.760Z,102586.63
2022-12-31T03:04:32.507Z,102592.72
2022-12-31T03:07:11.538Z,102589.34
2022-12-31T03:09:39.244Z,102585.16
2022-12-31T03:12:27.232Z,102596.25
2022-12-31T03:14:54.675Z,102603.19
2022-12-31T03:17:22.058Z,102604.09
2022-12-31T03:20:07.867Z,102607.59
2022-12-31T03:22:38.509Z,102615.28
2022-12-31T03:25:27.932Z,102615.09
2022-12-31T03:27:56.304Z,102629.09
2022-12-31T03:30:24.087Z,102632.34
2022-12-31T03:32:51.923Z,102628.47
2022-12-31T03:35:22.962Z,102629.44
2022-12-31T03:37:51.593Z,102627.06
2022-12-31T03:40:20.764Z,102629.91
2022-12-31T03:42:47.889Z,102625.78
2022-12-31T03:45:14.913Z,102615.63
2022-12-31T03:47:41.926Z,102620.97
2022-12-31T03:50:11.416Z,102616.63
2022-12-31T03:52:38.681Z,102618.53
2022-12-31T03:55:06.548Z,102624.91
2022-12-31T03:57:33.543Z,102622.13
2022-12-31T04:00:00.399Z,102623.47
2022-12-31T04:02:29.402Z,102627.72
2022-12-31T04:04:56.396Z,102626.03
2022-12-31T04:07:23.861Z,102634.34
2022-12-31T04:09:50.647Z,102621.50
2022-12-31T04:12:17.534Z,102633.69
2022-12-31T04:14:44.271Z,102627.06
2022-12-31T04:17:11.217Z,102630.56
2022-12-31T04:19:38.031Z,102622.88
2022-12-31T04:22:05.251Z,102623.88
2022-12-31T04:24:32.187Z,102630.97
2022-12-31T04:27:05.384Z,102632.88
2022-12-31T04:29:34.659Z,102639.75
2022-12-31T04:32:01.717Z,102634.38
2022-12-31T04:34:28.611Z,102642.06
2022-12-31T04:36:55.418Z,102634.50
2022-12-31T04:39:22.266Z,102649.97
2022-12-31T04:41:49.792Z,102656.00
2022-12-31T04:44:16.768Z,102648.16
2022-12-31T04:46:44.274Z,102655.19
2022-12-31T04:49:11.327Z,102661.06
2022-12-31T04:51:38.269Z,102669.59
2022-12-31T04:54:05.557Z,102670.47
2022-12-31T04:56:33.030Z,102655.94
2022-12-31T04:58:59.870Z,102673.09
2022-12-31T05:01:26.891Z,102672.09
2022-12-31T05:03:53.768Z,102668.72
2022-12-31T05:06:23.018Z,102683.38
2022-12-31T05:08:50.467Z,102684.19
2022-12-31T05:11:17.459Z,102690.88
2022-12-31T05:13:44.605Z,102689.16
2022-12-31T05:16:11.589Z,102693.59
2022-12-31T05:18:38.491Z,102697.00
2022-12-31T05:21:06.217Z,102696.91
2022-12-31T05:23:33.122Z,102699.19
2022-12-31T05:26:00.052Z,102710.22
2022-12-31T05:28:26.946Z,102716.50
2022-12-31T05:30:53.945Z,102718.00
2022-12-31T05:33:21.340Z,102715.81
2022-12-31T05:35:48.194Z,102719.19
2022-12-31T05:38:15.086Z,102726.31
2022-12-31T05:40:42.127Z,102716.03
2022-12-31T05:43:08.990Z,102731.59
2022-12-31T05:45:35.832Z,102727.56
2022-12-31T05:48:02.651Z,102727.41
2022-12-31T05:50:29.599Z,102725.59
2022-12-31T05:52:56.616Z,102733.47
2022-12-31T05:55:24.241Z,102733.56
2022-12-31T05:57:51.110Z,102730.13
2022-12-31T06:00:18.076Z,102741.47
2022-12-31T06:02:45.604Z,102738.09
2022-12-31T06:05:13.138Z,102733.84
2022-12-31T06:07:39.911Z,102743.97
2022-12-31T06:10:07.512Z,102756.28
2022-12-31T06:12:34.329Z,102764.41
2022-12-31T06:15:01.300Z,102766.97
2022-12-31T06:17:32.492Z,102773.53
2022-12-31T06:19:59.959Z,102777.66
2022-12-31T06:22:26.848Z,102781.03
2022-12-31T06:24:53.725Z,102784.06
2022-12-31T06:27:20.516Z,102778.28
2022-12-31T06:29:48.092Z,102784.75
2022-12-31T06:32:15.965Z,102785.63
2022-12-31T06:34:42.823Z,102788.28
2022-12-31T06:37:09.860Z,102785.75
2022-12-31T06:39:36.725Z,102782.13
2022-12-31T06:42:03.470Z,102778.88
2022-12-31T06:44:30.332Z,102785.03
2022-12-31T06:46:57.090Z,102782.59
2022-12-31T06:49:24.154Z,102787.09
2022-12-31T06:51:51.000Z,102776.69
2022-12-31T06:54:17.888Z,102778.28
2022-12-31T06:56:45.152Z,102795.53
2022-12-31T06:59:30.199Z,102794.72
2022-12-31T07:02:37.430Z,102794.06
2022-12-31T07:05:12.989Z,102813.72
2022-12-31T07:07:54.509Z,102814.44
2022-12-31T07:10:39.583Z,102806.31
2022-12-31T07:13:24.794Z,102819.69
2022-12-31T07:15:53.196Z,102813.44
2022-12-31T07:18:31.824Z,102816.00
2022-12-31T07:20:59.464Z,102813.38
2022-12-31T07:23:26.548Z,102804.81
2022-12-31T07:26:11.029Z,102813.66
2022-12-31T07:28:40.818Z,102812.13
2022-12-31T07:31:10.620Z,102818.50
2022-12-31T07:33:40.339Z,102816.84
2022-12-31T07:36:25.621Z,102819.19
2022-12-31T07:39:05.599Z,102825.06
2022-12-31T07:41:47.478Z,102830.31
2022-12-31T07:44:42.299Z,102838.06
2022-12-31T07:47:21.278Z,102847.53
2022-12-31T07:49:49.104Z,102857.06
2022-12-31T07:52:16.524Z,102858.84
2022-12-31T07:54:43.974Z,102868.22
2022-12-31T07:57:15.810Z,102871.75
2022-12-31T07:59:58.777Z,102883.94
2022-12-31T08:02:59.372Z,102883.16
2022-12-31T08:05:46.407Z,102890.00
2022-12-31T08:08:19.130Z,102899.38
2022-12-31T08:11:05.100Z,102899.38
2022-12-31T08:13:32.571Z,102907.06
2022-12-31T08:16:00.280Z,102909.72
2022-12-31T08:18:27.383Z,102908.03
2022-12-31T08:21:00.166Z,102914.94
2022-12-31T08:23:58.009Z,102913.34
2022-12-31T08:26:46.908Z,102907.47
2022-12-31T08:29:31.423Z,102906.59
2022-12-31T08:32:19.686Z,102922.38
2022-12-31T08:34:57.626Z,102917.19
2022-12-31T08:38:01.915Z,102924.06
2022-12-31T08:40:39.563Z,102923.94
2022-12-31T08:43:06.322Z,102926.78
2022-12-31T08:45:49.430Z,102930.09
2022-12-31T08:48:25.597Z,102941.28
2022-12-31T08:50:53.390Z,102936.72
2022-12-31T08:53:20.581Z,102923.19
2022-12-31T08:55:49.601Z,102953.03
2022-12-31T08:58:19.250Z,102950.50
2022-12-31T09:00:50.046Z,102961.69
2022-12-31T09:03:26.195Z,102961.69
2022-12-31T09:06:27.317Z,102969.56
2022-12-31T09:09:07.182Z,102979.03
2022-12-31T09:11:49.481Z,102984.22
2022-12-31T09:14:48.677Z,102982.34
2022-12-31T09:17:43.017Z,102982.03
2022-12-31T09:20:42.270Z,102984.31
2022-12-31T09:23:11.541Z,102979.75
2022-12-31T09:25:45.835Z,102989.31
2022-12-31T09:28:15.519Z,102990.19
2022-12-31T09:30:58.315Z,102995.44
2022-12-31T09:33:46.727Z,102994.50
2022-12-31T09:36:22.273Z,102992.91
2022-12-31T09:38:56.043Z,102985.28
2022-12-31T09:41:48.899Z,102994.16
2022-12-31T09:44:43.411Z,103002.94
2022-12-31T09:47:22.239Z,102989.31
2022-12-31T09:50:26.615Z,103002.50
2022-12-31T09:53:12.638Z,102997.31
2022-12-31T09:56:04.214Z,102991.06
2022-12-31T09:58:49.341Z,103004.94
2022-12-31T10:01:19.338Z,102995.47
2022-12-31T10:04:13.259Z,102998.19
2022-12-31T10:06:40.017Z,102997.34
2022-12-31T10:09:24.846Z,102998.28
2022-12-31T10:12:13.311Z,102996.56
2022-12-31T10:14:58.026Z,103000.03
2022-12-31T10:17:43.283Z,103001.72
2022-12-31T10:20:22.690Z,102996.44
2022-12-31T10:23:19.388Z,103004.44
2022-12-31T10:26:08.960Z,103000.31
2022-12-31T10:28:56.411Z,102995.28
2022-12-31T10:31:55.388Z,102991.03
2022-12-31T10:34:22.147Z,102984.19
2022-12-31T10:37:13.758Z,102979.13
2022-12-31T10:40:05.063Z,102976.59
2022-12-31T10:43:08.415Z,102969.75
2022-12-31T10:45:58.550Z,102971.53
2022-12-31T10:48:54.984Z,102966.44
2022-12-31T10:51:40.061Z,102965.53
2022-12-31T10:54:35.977Z,102969.91
2022-12-31T10:57:25.983Z,102964.84
2022-12-31T11:00:11.246Z,102962.53
2022-12-31T11:03:07.376Z,102970.41
2022-12-31T11:05:52.851Z,102965.13
2022-12-31T11:08:44.284Z,102960.78
2022-12-31T11:11:35.821Z,102951.50
2022-12-31T11:14:27.201Z,102953.25
2022-12-31T11:17:07.006Z,102948.94
2022-12-31T11:19:48.809Z,102951.56
2022-12-31T11:22:41.940Z,102939.72
2022-12-31T11:25:11.957Z,102932.06
2022-12-31T11:27:49.583Z,102941.63
2022-12-31T11:30:37.041Z,102941.78
2022-12-31T11:33:22.677Z,102929.13
2022-12-31T11:36:26.882Z,102925.97
2022-12-31T11:39:13.446Z,102929.53
2022-12-31T11:41:49.690Z,102922.03
2022-12-31T11:44:54.806Z,102930.53
2022-12-31T11:48:20.259Z,102925.41
2022-12-31T11:50:44.773Z,102924.59
2022-12-31T12:15:06.991Z,102875.16
2022-12-31T12:24:07.087Z,102844.69
2022-12-31T12:36:32.937Z,102837.03
2022-12-31T12:39:06.864Z,102853.19
2022-12-31T12:41:36.802Z,102850.63
2022-12-31T12:44:14.113Z,102858.66
2022-12-31T12:46:48.396Z,102855.16
2022-12-31T12:49:26.646Z,102852.44
2022-12-31T12:52:27.554Z,102862.88
2022-12-31T12:55:28.615Z,102867.41
2022-12-31T13:00:52.082Z,102866.78
2022-12-31T13:07:05.643Z,102859.94
2022-12-31T13:09:50.859Z,102861.66
2022-12-31T13:13:05.233Z,102859.03
2022-12-31T13:16:05.965Z,102854.69
2022-12-31T13:18:44.733Z,102846.38
2022-12-31T13:21:41.931Z,102853.53
2022-12-31T13:24:28.478Z,102839.69
2022-12-31T13:27:10.115Z,102848.44
2022-12-31T13:29:39.739Z,102846.75
2022-12-31T13:32:13.046Z,102839.16
2022-12-31T13:34:44.566Z,102846.84
2022-12-31T13:37:33.880Z,102855.44
2022-12-31T13:40:24.163Z,102852.56
2022-12-31T13:43:34.448Z,102861.03
2022-12-31T13:46:09.767Z,102852.34
2022-12-31T13:48:44.621Z,102850.56
2022-12-31T13:51:23.085Z,102861.66
2022-12-31T13:53:53.717Z,102855.59
2022-12-31T13:56:25.798Z,102854.69
2022-12-31T13:59:04.834Z,102853.13
2022-12-31T14:01:41.139Z,102855.88
2022-12-31T14:04:44.945Z,102857.72
2022-12-31T14:07:20.036Z,102863.84
2022-12-31T14:09:46.898Z,102863.97
2022-12-31T14:12:39.923Z,102860.56
2022-12-31T14:15:13.553Z,102869.06
2022-12-31T14:17:55.776Z,102862.13
2022-12-31T14:20:28.960Z,102867.13
2022-12-31T14:23:11.075Z,102866.94
2022-12-31T14:25:47.395Z,102873.66
2022-12-31T14:28:29.487Z,102872.72
2022-12-31T14:31:07.270Z,102874.50
2022-12-31T14:34:29.665Z,102870.13
2022-12-31T14:37:05.720Z,102876.13
2022-12-31T14:39:49.630Z,102878.69
2022-12-31T14:42:36.979Z,102879.44
2022-12-31T14:45:17.780Z,102882.88
2022-12-31T14:47:44.574Z,102882.00
2022-12-31T14:50:17.509Z,102886.28
2022-12-31T14:52:52.313Z,102886.28
2022-12-31T14:55:24.246Z,102887.16
2022-12-31T15:00:52.535Z,102889.63
2022-12-31T15:03:46.116Z,102881.78
2022-12-31T15:06:53.019Z,102892.97
2022-12-31T15:10:04.553Z,102892.94
2022-12-31T15:12:34.371Z,102899.78
2022-12-31T15:15:03.900Z,102904.09
2022-12-31T15:17:39.657Z,102910.34
2022-12-31T15:20:43.714Z,102903.53
2022-12-31T15:23:25.645Z,102911.38
2022-12-31T15:26:00.417Z,102910.50
2022-12-31T15:28:35.449Z,102915.75
2022-12-31T15:31:07.598Z,102921.69
2022-12-31T15:33:53.273Z,102921.41
2022-12-31T15:36:23.308Z,102926.59
2022-12-31T15:38:50.944Z,102939.47
2022-12-31T15:41:27.019Z,102937.72
2022-12-31T15:44:15.138Z,102954.69
2022-12-31T15:46:43.959Z,102940.50
2022-12-31T15:49:18.388Z,102953.97
2022-12-31T15:52:13.425Z,102955.06
2022-12-31T15:54:44.487Z,102974.22
2022-12-31T15:57:21.368Z,102978.28
2022-12-31T15:59:48.394Z,102982.66
2022-12-31T16:02:25.932Z,102989.69
2022-12-31T16:04:55.098Z,102996.81
2022-12-31T16:07:24.554Z,103001.09
2022-12-31T16:09:58.265Z,103001.47
2022-12-31T16:12:34.445Z,103005.69
2022-12-31T16:15:03.330Z,103012.75
2022-12-31T16:17:33.959Z,103018.03
2022-12-31T16:20:03.129Z,103018.03
2022-12-31T16:22:37.501Z,103021.28
2022-12-31T16:27:54.790Z,103019.81
2022-12-31T16:30:21.707Z,103021.28
2022-12-31T16:32:50.250Z,103020.16
2022-12-31T16:35:32.328Z,103019.09
2022-12-31T16:38:22.907Z,103015.75
2022-12-31T16:41:05.067Z,103017.88
2022-12-31T16:43:40.399Z,103017.28
2022-12-31T16:46:35.174Z,103006.94
2022-12-31T16:49:16.051Z,103018.97
2022-12-31T16:51:43.264Z,103014.34
2022-12-31T16:54:24.692Z,103019.47
2022-12-31T16:56:52.002Z,103015.41
2022-12-31T16:59:44.216Z,103022.50
2022-12-31T17:02:18.122Z,103028.72
2022-12-31T17:04:56.367Z,103033.75
2022-12-31T17:07:32.509Z,103036.31
2022-12-31T17:10:22.662Z,103032.13
2022-12-31T17:15:44.428Z,103036.44
2022-12-31T17:18:20.028Z,103027.53
2022-12-31T17:20:48.711Z,103027.19
2022-12-31T17:23:36.794Z,103025.94
2022-12-31T17:26:21.505Z,103025.16
2022-12-31T17:28:51.780Z,103025.91
2022-12-31T17:31:29.979Z,103024.94
2022-12-31T17:34:15.556Z,103020.66
2022-12-31T17:37:17.705Z,103014.59
2022-12-31T17:39:53.143Z,103017.03
2022-12-31T17:42:37.390Z,103019.75
2022-12-31T17:45:18.077Z,103016.06
2022-12-31T17:47:51.175Z,103018.56
2022-12-31T17:50:26.714Z,103039.97
2022-12-31T17:53:04.682Z,103034.75
2022-12-31T17:55:31.612Z,103036.53
2022-12-31T17:57:58.590Z,103031.16
2022-12-31T18:00:27.914Z,103033.59
2022-12-31T18:02:55.059Z,103028.16
2022-12-31T18:05:24.436Z,103037.25
2022-12-31T18:07:51.987Z,103028.94
2022-12-31T18:10:22.375Z,103035.72
2022-12-31T18:12:49.515Z,103050.34
2022-12-31T18:15:19.716Z,103045.16
2022-12-31T18:17:46.705Z,103050.50
2022-12-31T18:20:13.920Z,103047.88
2022-12-31T18:22:45.112Z,103052.03
2022-12-31T18:25:24.678Z,103051.16
2022-12-31T18:27:52.548Z,103050.56
2022-12-31T18:30:19.652Z,103052.63
2022-12-31T18:32:47.009Z,103049.31
2022-12-31T18:35:48.565Z,103054.66
2022-12-31T18:38:11.810Z,103059.84
2022-12-31T18:40:42.757Z,103068.72
2022-12-31T18:43:18.933Z,103065.41
2022-12-31T18:45:47.539Z,103078.69
2022-12-31T18:48:15.075Z,103074.16
2022-12-31T18:50:42.631Z,103081.25
2022-12-31T18:53:18.459Z,103082.59
2022-12-31T18:55:51.262Z,103083.94
2022-12-31T18:58:18.651Z,103085.63
2022-12-31T19:00:46.140Z,103092.53
2022-12-31T19:03:22.317Z,103094.44
2022-12-31T19:05:51.202Z,103088.03
2022-12-31T19:08:19.396Z,103105.28
2022-12-31T19:10:47.916Z,103103.38
2022-12-31T19:13:16.525Z,103106.31
2022-12-31T19:15:51.878Z,103110.88
2022-12-31T19:18:19.513Z,103109.16
2022-12-31T19:21:19.722Z,103114.44
2022-12-31T19:23:47.126Z,103105.19
2022-12-31T19:26:19.289Z,103114.31
2022-12-31T19:28:47.694Z,103116.97
2022-12-31T19:31:17.670Z,103116.25
2022-12-31T19:33:44.798Z,103103.75
2022-12-31T19:36:19.331Z,103112.53
2022-12-31T19:38:46.824Z,103109.34
2022-12-31T19:41:16.270Z,103108.56
2022-12-31T19:43:43.440Z,103105.16
2022-12-31T19:46:14.840Z,103103.94
2022-12-31T19:48:42.090Z,103109.13
2022-12-31T19:54:00.799Z,103104.25
2022-12-31T19:56:27.689Z,103088.91
2022-12-31T19:58:54.582Z,103123.63
2022-12-31T20:01:23.745Z,103121.00
2022-12-31T20:03:51.658Z,103114.78
2022-12-31T20:06:18.909Z,103123.47
2022-12-31T20:08:46.683Z,103121.88
2022-12-31T20:11:21.935Z,103113.53
2022-12-31T20:13:50.110Z,103118.53
2022-12-31T20:16:19.859Z,103115.06
2022-12-31T20:18:48.017Z,103118.41
2022-12-31T20:21:18.047Z,103118.31
2022-12-31T20:23:45.716Z,103111.47
2022-12-31T20:26:13.006Z,103107.06
2022-12-31T20:28:40.217Z,103106.44
2022-12-31T20:31:11.835Z,103112.34
2022-12-31T20:33:39.050Z,103105.00
2022-12-31T20:36:13.717Z,103101.06
2022-12-31T20:38:44.411Z,103106.81
2022-12-31T20:41:18.170Z,103107.50
2022-12-31T20:43:46.482Z,103103.03
2022-12-31T20:46:16.396Z,103103.81
2022-12-31T20:48:44.546Z,103108.91
2022-12-31T20:51:13.092Z,103106.94
2022-12-31T20:53:40.732Z,103107.75
2022-12-31T20:56:08.953Z,103101.41
2022-12-31T20:58:36.128Z,103106.56
2022-12-31T21:01:07.388Z,103103.06
2022-12-31T21:06:27.177Z,103111.50
2022-12-31T21:08:58.863Z,103109.75
2022-12-31T21:11:44.843Z,103109.47
2022-12-31T21:14:11.745Z,103110.19
2022-12-31T21:16:38.820Z,103104.81
2022-12-31T21:19:06.077Z,103112.41
2022-12-31T21:21:33.449Z,103107.97
2022-12-31T21:24:00.436Z,103101.00
2022-12-31T21:26:27.791Z,103110.41
2022-12-31T21:28:54.659Z,103106.66
2022-12-31T21:31:21.549Z,103106.63
2022-12-31T21:33:49.467Z,103108.38
2022-12-31T21:36:16.384Z,103111.66
2022-12-31T21:38:43.945Z,103116.75
2022-12-31T21:41:35.089Z,103114.38
2022-12-31T21:44:02.313Z,103107.97
2022-12-31T21:46:29.731Z,103111.06
2022-12-31T21:49:00.255Z,103099.66
2022-12-31T21:51:28.500Z,103106.78
2022-12-31T21:53:55.497Z,103108.44
2022-12-31T21:56:22.668Z,103114.94
2022-12-31T21:59:16.795Z,103109.22
2022-12-31T22:02:02.593Z,103104.66
2022-12-31T22:07:16.793Z,103105.94
2022-12-31T22:09:43.631Z,103112.75
2022-12-31T22:12:10.500Z,103102.16
2022-12-31T22:14:37.295Z,103122.72
2022-12-31T22:17:04.350Z,103124.34
2022-12-31T22:19:31.191Z,103117.25
2022-12-31T22:21:58.155Z,103121.84
2022-12-31T22:24:24.999Z,103106.81
2022-12-31T22:26:54.259Z,103121.63
2022-12-31T22:29:21.692Z,103121.63
2022-12-31T22:31:48.547Z,103106.56
2022-12-31T22:34:15.539Z,103108.66
2022-12-31T22:36:42.440Z,103113.91
2022-12-31T22:39:44.033Z,103116.47
2022-12-31T22:42:01.856Z,103117.50
2022-12-31T22:44:28.871Z,103129.78
2022-12-31T22:46:56.377Z,103119.44
2022-12-31T22:49:23.421Z,103125.31
2022-12-31T22:51:56.391Z,103132.69
2022-12-31T22:54:25.826Z,103128.97
2022-12-31T22:56:52.685Z,103135.25
2022-12-31T22:59:19.630Z,103137.81
2022-12-31T23:01:46.475Z,103135.34
2022-12-31T23:04:13.913Z,103132.06
2022-12-31T23:06:43.993Z,103134.78
2022-12-31T23:09:33.693Z,103119.19
2022-12-31T23:12:01.267Z,103134.34
2022-12-31T23:14:46.660Z,103135.53
2022-12-31T23:17:35.524Z,103133.25
2022-12-31T23:20:22.298Z,103123.22
2022-12-31T23:23:08.019Z,103119.75
2022-12-31T23:25:36.861Z,103127.78
2022-12-31T23:28:05.040Z,103128.50
2022-12-31T23:30:31.999Z,103125.84
2022-12-31T23:32:58.878Z,103115.09
2022-12-31T23:35:26.788Z,103115.09
2022-12-31T23:37:54.014Z,103115.34
2022-12-31T23:40:22.073Z,103116.81
2022-12-31T23:42:50.260Z,103113.19
2022-12-31T23:45:17.218Z,103110.38
2022-12-31T23:47:44.193Z,103108.63
2022-12-31T23:50:11.087Z,103111.34
2022-12-31T23:52:38.432Z,103106.59
2022-12-31T23:55:05.570Z,103098.22
2022-12-31T23:57:32.411Z,103100.22
2022-12-31T23:59:59.640Z,103093.50
